Sds Green — ICOK — position and weather

sailwx.info

Track history (hours):
 
Tides and Currents Weather Stations Pressure Air Temp Water Temp Dewpoint Dewpoint Depression Visibility Wind Speed Wind Dir Waves Ship Positions

Sds Green

Last reported at 2016-Apr-29 11:33 UTC. Time now 2016-May-05 21:56 UTC.
Position N 37°46' E 015°60'.

Length 108 m; draft 4.4 m.

Type: Cargo ship. MMSI: 247292200.

Date/timePositionNaut miles runAvg speedWind from/ knotsBaromVisibWave heightAir tempDewpointWater temp
2016-Apr-29 11:33N 37°46' E 015°60'1111.0
2016-Apr-29 10:33N 37°37' E 015°52'1110.9
2016-Apr-29 09:33N 37°27' E 015°46'1110.7
2016-Apr-29 08:33N 37°18' E 015°40'1010.4
2016-Apr-29 07:33N 37°08' E 015°36'1010.1
2016-Apr-29 06:33N 36°58' E 015°31'19 9.5
2016-Apr-29 04:33N 36°43' E 015°17'9 9.3
2016-Apr-29 03:33N 36°36' E 015°10'9 9.3
2016-Apr-29 02:33N 36°37' E 014°59'10 9.6
2016-Apr-29 01:33N 36°39' E 014°47'1111.2
2016-Apr-29 00:33N 36°41' E 014°33'1211.7
2016-Apr-28 23:34N 36°44' E 014°19'1211.7
2016-Apr-28 22:34N 36°46' E 014°05'1110.9
2016-Apr-28 21:34N 36°49' E 013°52'1110.9
2016-Apr-28 20:33N 36°51' E 013°38'1110.8
2016-Apr-28 19:33N 36°54' E 013°25'1111.1
2016-Apr-28 18:33N 36°56' E 013°12'16310.7
2016-Apr-28 03:19N 37°33' E 009°52'2011.2
2016-Apr-28 01:33N 37°28' E 009°27'1111.4
2016-Apr-28 00:33N 37°26' E 009°14'1211.8
2016-Apr-27 23:32N 37°23' E 008°59'1211.7
2016-Apr-27 22:33N 37°22' E 008°44'2311.5
2016-Apr-27 20:32N 37°16' E 008°16'1111.4
2016-Apr-27 19:32N 37°15' E 008°02'5510.9
2016-Apr-27 14:30N 37°14' E 006°53'14910.7
2016-Apr-27 00:32N 37°00' E 003°47'1211.7
2016-Apr-26 23:33N 36°59' E 003°32'1111.4
2016-Apr-26 22:33N 36°55' E 003°19'1111.2
2016-Apr-26 21:33N 36°49' E 003°07'  
Track history (hours):
 
Tides and Currents Weather Stations Pressure Air Temp Water Temp Dewpoint Dewpoint Depression Visibility Wind Speed Wind Dir Waves Ship Positions

Sds Green

Last reported at 2016-Apr-29 11:33 UTC. Time now 2016-May-05 21:56 UTC.
Position N 37°46' E 015°60'.

Length 108 m; draft 4.4 m.

Type: Cargo ship. MMSI: 247292200.

Date/timePositionNaut miles runAvg speedWind from/ knotsBaromVisibWave heightAir tempDewpointWater temp
2016-Apr-29 11:33N 37°46' E 015°60'1111.0
2016-Apr-29 10:33N 37°37' E 015°52'1110.9
2016-Apr-29 09:33N 37°27' E 015°46'1110.7
2016-Apr-29 08:33N 37°18' E 015°40'1010.4
2016-Apr-29 07:33N 37°08' E 015°36'1010.1
2016-Apr-29 06:33N 36°58' E 015°31'19 9.5
2016-Apr-29 04:33N 36°43' E 015°17'9 9.3
2016-Apr-29 03:33N 36°36' E 015°10'9 9.3
2016-Apr-29 02:33N 36°37' E 014°59'10 9.6
2016-Apr-29 01:33N 36°39' E 014°47'1111.2
2016-Apr-29 00:33N 36°41' E 014°33'1211.7
2016-Apr-28 23:34N 36°44' E 014°19'1211.7
2016-Apr-28 22:34N 36°46' E 014°05'1110.9
2016-Apr-28 21:34N 36°49' E 013°52'1110.9
2016-Apr-28 20:33N 36°51' E 013°38'1110.8
2016-Apr-28 19:33N 36°54' E 013°25'1111.1
2016-Apr-28 18:33N 36°56' E 013°12'16310.7
2016-Apr-28 03:19N 37°33' E 009°52'2011.2
2016-Apr-28 01:33N 37°28' E 009°27'1111.4
2016-Apr-28 00:33N 37°26' E 009°14'1211.8
2016-Apr-27 23:32N 37°23' E 008°59'1211.7
2016-Apr-27 22:33N 37°22' E 008°44'2311.5
2016-Apr-27 20:32N 37°16' E 008°16'1111.4
2016-Apr-27 19:32N 37°15' E 008°02'5510.9
2016-Apr-27 14:30N 37°14' E 006°53'14910.7
2016-Apr-27 00:32N 37°00' E 003°47'1211.7
2016-Apr-26 23:33N 36°59' E 003°32'1111.4
2016-Apr-26 22:33N 36°55' E 003°19'1111.2
2016-Apr-26 21:33N 36°49' E 003°07'  

Dump ship's entire track history